St Helier, United Kingdom
Current Conditions -  °F | °C
As of 5:20 AM on Sunday 26 Oct 2014 (Local Time) from EGJJ Reporting Station
Broken Clouds Broken Clouds  
Wind Chill: 55°   Ceiling: 3100
Heat Index: 55°   Visibility: 6mi
Dew Point: 46°   Wind: 8mph
Humidity: 72%   Direction: 220°SW
Pressure: 30.21"   Gusts: NA
Location:  49.18°N, 2.1°W
Report Text: EGJJ 260420Z 22007KT 9999 FEW026 BKN031 13/08 Q1023 NOSIG
Loading
Personal Weather Stations






























Interactive Weather Map New forecast layout! Learn more

10-Day Weather Forecast

Advertisements
Track Severe Weather on mobile